sensor_id;sensor_type;location;lat;lon;timestamp;P1;durP1;ratioP1;P2;durP2;ratioP2
37885;SDS011;23726;52.520;13.434;2022-11-18T00:01:34;17.00;;;13.90;;
37885;SDS011;23726;52.520;13.434;2022-11-18T00:04:00;15.55;;;13.60;;
37885;SDS011;23726;52.520;13.434;2022-11-18T00:06:26;15.75;;;13.68;;
37885;SDS011;23726;52.520;13.434;2022-11-18T00:08:53;17.00;;;12.93;;
37885;SDS011;23726;52.520;13.434;2022-11-18T00:11:20;16.65;;;13.10;;
37885;SDS011;23726;52.520;13.434;2022-11-18T00:14:10;15.70;;;13.05;;
37885;SDS011;23726;52.520;13.434;2022-11-18T00:16:44;15.73;;;13.02;;
37885;SDS011;23726;52.520;13.434;2022-11-18T00:19:39;16.38;;;13.30;;
37885;SDS011;23726;52.520;13.434;2022-11-18T00:22:05;16.05;;;12.88;;
37885;SDS011;23726;52.520;13.434;2022-11-18T00:24:35;15.23;;;12.82;;
37885;SDS011;23726;52.520;13.434;2022-11-18T00:27:01;15.93;;;12.98;;
37885;SDS011;23726;52.520;13.434;2022-11-18T00:29:26;19.15;;;12.88;;
37885;SDS011;23726;52.520;13.434;2022-11-18T00:31:53;15.32;;;12.50;;
37885;SDS011;23726;52.520;13.434;2022-11-18T00:34:19;14.77;;;12.82;;
37885;SDS011;23726;52.520;13.434;2022-11-18T00:36:45;14.45;;;12.20;;
37885;SDS011;23726;52.520;13.434;2022-11-18T00:39:12;14.82;;;12.07;;
37885;SDS011;23726;52.520;13.434;2022-11-18T00:41:40;13.73;;;11.73;;
37885;SDS011;23726;52.520;13.434;2022-11-18T00:44:24;14.23;;;12.32;;
37885;SDS011;23726;52.520;13.434;2022-11-18T00:46:50;15.10;;;12.32;;
37885;SDS011;23726;52.520;13.434;2022-11-18T00:49:16;15.55;;;12.18;;
37885;SDS011;23726;52.520;13.434;2022-11-18T00:51:42;14.60;;;11.90;;
37885;SDS011;23726;52.520;13.434;2022-11-18T00:54:07;16.65;;;12.48;;
37885;SDS011;23726;52.520;13.434;2022-11-18T00:56:33;14.82;;;11.95;;
37885;SDS011;23726;52.520;13.434;2022-11-18T00:58:59;16.67;;;12.43;;
37885;SDS011;23726;52.520;13.434;2022-11-18T01:01:24;14.57;;;12.30;;
37885;SDS011;23726;52.520;13.434;2022-11-18T01:03:50;14.13;;;12.30;;
37885;SDS011;23726;52.520;13.434;2022-11-18T01:06:15;17.50;;;12.68;;
37885;SDS011;23726;52.520;13.434;2022-11-18T01:08:41;15.18;;;12.38;;
37885;SDS011;23726;52.520;13.434;2022-11-18T01:11:07;14.07;;;12.27;;
37885;SDS011;23726;52.520;13.434;2022-11-18T01:13:51;19.23;;;12.00;;
37885;SDS011;23726;52.520;13.434;2022-11-18T01:16:18;15.23;;;12.00;;
37885;SDS011;23726;52.520;13.434;2022-11-18T01:18:48;13.38;;;11.95;;
37885;SDS011;23726;52.520;13.434;2022-11-18T01:21:13;15.32;;;12.40;;
37885;SDS011;23726;52.520;13.434;2022-11-18T01:23:39;15.20;;;12.13;;
37885;SDS011;23726;52.520;13.434;2022-11-18T01:26:06;13.90;;;12.43;;
37885;SDS011;23726;52.520;13.434;2022-11-18T01:28:33;12.95;;;11.57;;
37885;SDS011;23726;52.520;13.434;2022-11-18T01:31:03;15.43;;;12.55;;
37885;SDS011;23726;52.520;13.434;2022-11-18T01:33:33;13.57;;;11.65;;
37885;SDS011;23726;52.520;13.434;2022-11-18T01:35:59;14.25;;;11.88;;
37885;SDS011;23726;52.520;13.434;2022-11-18T01:38:25;14.43;;;12.15;;
37885;SDS011;23726;52.520;13.434;2022-11-18T01:40:52;14.02;;;12.20;;
37885;SDS011;23726;52.520;13.434;2022-11-18T01:43:19;13.93;;;11.90;;
37885;SDS011;23726;52.520;13.434;2022-11-18T01:45:46;14.23;;;11.88;;
37885;SDS011;23726;52.520;13.434;2022-11-18T01:50:56;16.48;;;11.05;;
37885;SDS011;23726;52.520;13.434;2022-11-18T01:53:32;14.27;;;12.07;;
37885;SDS011;23726;52.520;13.434;2022-11-18T01:56:03;13.93;;;12.23;;
37885;SDS011;23726;52.520;13.434;2022-11-18T01:58:35;13.73;;;11.70;;
37885;SDS011;23726;52.520;13.434;2022-11-18T02:01:04;15.52;;;11.85;;
37885;SDS011;23726;52.520;13.434;2022-11-18T02:03:31;13.18;;;11.77;;
37885;SDS011;23726;52.520;13.434;2022-11-18T02:05:58;13.45;;;12.02;;
37885;SDS011;23726;52.520;13.434;2022-11-18T02:08:26;12.80;;;11.32;;
37885;SDS011;23726;52.520;13.434;2022-11-18T02:10:53;13.07;;;11.13;;
37885;SDS011;23726;52.520;13.434;2022-11-18T02:13:19;13.25;;;11.40;;
37885;SDS011;23726;52.520;13.434;2022-11-18T02:15:54;13.93;;;11.88;;
37885;SDS011;23726;52.520;13.434;2022-11-18T02:18:28;13.38;;;11.38;;
37885;SDS011;23726;52.520;13.434;2022-11-18T02:21:53;13.05;;;11.65;;
37885;SDS011;23726;52.520;13.434;2022-11-18T02:30:05;16.95;;;11.55;;
37885;SDS011;23726;52.520;13.434;2022-11-18T02:40:16;13.50;;;11.85;;
37885;SDS011;23726;52.520;13.434;2022-11-18T02:42:49;16.40;;;11.52;;
37885;SDS011;23726;52.520;13.434;2022-11-18T02:45:22;16.95;;;11.50;;
37885;SDS011;23726;52.520;13.434;2022-11-18T02:47:50;14.88;;;11.27;;
37885;SDS011;23726;52.520;13.434;2022-11-18T02:50:19;14.82;;;11.38;;
37885;SDS011;23726;52.520;13.434;2022-11-18T02:52:49;13.15;;;10.70;;
37885;SDS011;23726;52.520;13.434;2022-11-18T02:55:18;18.80;;;11.45;;
37885;SDS011;23726;52.520;13.434;2022-11-18T02:57:45;14.43;;;11.20;;
37885;SDS011;23726;52.520;13.434;2022-11-18T03:00:12;13.18;;;11.43;;
37885;SDS011;23726;52.520;13.434;2022-11-18T03:02:39;15.20;;;10.85;;
37885;SDS011;23726;52.520;13.434;2022-11-18T03:05:06;15.38;;;11.50;;
37885;SDS011;23726;52.520;13.434;2022-11-18T03:07:41;12.65;;;11.02;;
37885;SDS011;23726;52.520;13.434;2022-11-18T03:10:08;13.35;;;11.00;;
37885;SDS011;23726;52.520;13.434;2022-11-18T03:20:30;12.82;;;11.00;;
37885;SDS011;23726;52.520;13.434;2022-11-18T03:23:10;12.90;;;10.70;;
37885;SDS011;23726;52.520;13.434;2022-11-18T03:26:11;13.15;;;10.90;;
37885;SDS011;23726;52.520;13.434;2022-11-18T03:28:52;13.23;;;11.20;;
37885;SDS011;23726;52.520;13.434;2022-11-18T03:31:35;12.93;;;11.00;;
37885;SDS011;23726;52.520;13.434;2022-11-18T03:34:15;13.48;;;11.25;;
37885;SDS011;23726;52.520;13.434;2022-11-18T03:37:15;12.43;;;11.13;;
37885;SDS011;23726;52.520;13.434;2022-11-18T03:39:49;12.20;;;10.93;;
37885;SDS011;23726;52.520;13.434;2022-11-18T03:42:31;13.02;;;11.23;;
37885;SDS011;23726;52.520;13.434;2022-11-18T03:47:40;12.23;;;10.85;;
37885;SDS011;23726;52.520;13.434;2022-11-18T03:50:26;13.25;;;10.95;;
37885;SDS011;23726;52.520;13.434;2022-11-18T03:52:56;11.82;;;10.30;;
37885;SDS011;23726;52.520;13.434;2022-11-18T03:55:24;14.15;;;11.02;;
37885;SDS011;23726;52.520;13.434;2022-11-18T03:58:01;11.43;;;9.82;;
37885;SDS011;23726;52.520;13.434;2022-11-18T04:00:38;12.48;;;10.82;;
37885;SDS011;23726;52.520;13.434;2022-11-18T04:03:07;14.43;;;11.40;;
37885;SDS011;23726;52.520;13.434;2022-11-18T04:05:35;12.68;;;11.38;;
37885;SDS011;23726;52.520;13.434;2022-11-18T04:08:16;12.00;;;10.80;;
37885;SDS011;23726;52.520;13.434;2022-11-18T04:13:17;11.82;;;10.43;;
37885;SDS011;23726;52.520;13.434;2022-11-18T04:15:47;12.10;;;10.57;;
37885;SDS011;23726;52.520;13.434;2022-11-18T04:18:12;13.70;;;11.05;;
37885;SDS011;23726;52.520;13.434;2022-11-18T04:20:38;13.00;;;10.70;;
37885;SDS011;23726;52.520;13.434;2022-11-18T04:23:04;12.18;;;10.45;;
37885;SDS011;23726;52.520;13.434;2022-11-18T04:25:31;13.57;;;10.60;;
37885;SDS011;23726;52.520;13.434;2022-11-18T04:27:56;13.05;;;10.25;;
37885;SDS011;23726;52.520;13.434;2022-11-18T04:30:22;14.20;;;10.57;;
37885;SDS011;23726;52.520;13.434;2022-11-18T04:32:48;11.75;;;10.55;;
37885;SDS011;23726;52.520;13.434;2022-11-18T04:35:13;12.57;;;11.27;;
37885;SDS011;23726;52.520;13.434;2022-11-18T04:37:39;11.70;;;10.35;;
37885;SDS011;23726;52.520;13.434;2022-11-18T04:40:05;11.98;;;10.63;;
37885;SDS011;23726;52.520;13.434;2022-11-18T04:42:31;13.73;;;10.80;;
37885;SDS011;23726;52.520;13.434;2022-11-18T04:44:57;12.55;;;11.23;;
37885;SDS011;23726;52.520;13.434;2022-11-18T04:47:22;13.35;;;10.98;;
37885;SDS011;23726;52.520;13.434;2022-11-18T04:49:48;13.38;;;11.30;;
37885;SDS011;23726;52.520;13.434;2022-11-18T04:52:15;11.57;;;10.32;;
37885;SDS011;23726;52.520;13.434;2022-11-18T04:54:41;12.98;;;11.23;;
37885;SDS011;23726;52.520;13.434;2022-11-18T04:57:06;12.38;;;10.70;;
37885;SDS011;23726;52.520;13.434;2022-11-18T04:59:32;12.35;;;11.05;;
37885;SDS011;23726;52.520;13.434;2022-11-18T05:01:58;13.80;;;11.55;;
37885;SDS011;23726;52.520;13.434;2022-11-18T05:04:26;12.57;;;11.27;;
37885;SDS011;23726;52.520;13.434;2022-11-18T05:06:54;12.40;;;10.65;;
37885;SDS011;23726;52.520;13.434;2022-11-18T05:09:19;14.32;;;11.40;;
37885;SDS011;23726;52.520;13.434;2022-11-18T05:11:45;11.75;;;10.50;;
37885;SDS011;23726;52.520;13.434;2022-11-18T05:14:30;12.35;;;10.98;;
37885;SDS011;23726;52.520;13.434;2022-11-18T05:16:56;12.13;;;10.88;;
37885;SDS011;23726;52.520;13.434;2022-11-18T05:19:22;12.98;;;11.30;;
37885;SDS011;23726;52.520;13.434;2022-11-18T05:21:48;12.73;;;11.43;;
37885;SDS011;23726;52.520;13.434;2022-11-18T05:24:14;12.98;;;11.13;;
37885;SDS011;23726;52.520;13.434;2022-11-18T05:26:40;13.02;;;11.73;;
37885;SDS011;23726;52.520;13.434;2022-11-18T05:29:05;14.18;;;11.88;;
37885;SDS011;23726;52.520;13.434;2022-11-18T05:31:31;12.60;;;11.27;;
37885;SDS011;23726;52.520;13.434;2022-11-18T05:33:57;15.55;;;11.15;;
37885;SDS011;23726;52.520;13.434;2022-11-18T05:36:23;13.00;;;11.25;;
37885;SDS011;23726;52.520;13.434;2022-11-18T05:38:48;12.52;;;11.23;;
37885;SDS011;23726;52.520;13.434;2022-11-18T05:41:15;12.80;;;11.40;;
37885;SDS011;23726;52.520;13.434;2022-11-18T05:44:00;12.57;;;11.27;;
37885;SDS011;23726;52.520;13.434;2022-11-18T05:46:26;13.65;;;11.05;;
37885;SDS011;23726;52.520;13.434;2022-11-18T05:48:53;12.25;;;11.02;;
37885;SDS011;23726;52.520;13.434;2022-11-18T05:51:19;12.60;;;11.07;;
37885;SDS011;23726;52.520;13.434;2022-11-18T05:53:49;12.63;;;11.32;;
37885;SDS011;23726;52.520;13.434;2022-11-18T05:56:24;12.52;;;10.95;;
37885;SDS011;23726;52.520;13.434;2022-11-18T05:59:00;12.90;;;11.55;;
37885;SDS011;23726;52.520;13.434;2022-11-18T06:01:35;12.27;;;11.00;;
37885;SDS011;23726;52.520;13.434;2022-11-18T06:04:40;12.75;;;11.45;;
37885;SDS011;23726;52.520;13.434;2022-11-18T06:09:38;13.88;;;11.95;;
37885;SDS011;23726;52.520;13.434;2022-11-18T06:12:08;12.23;;;10.90;;
37885;SDS011;23726;52.520;13.434;2022-11-18T06:14:40;12.65;;;11.10;;
37885;SDS011;23726;52.520;13.434;2022-11-18T06:17:11;12.35;;;11.13;;
37885;SDS011;23726;52.520;13.434;2022-11-18T06:19:44;14.13;;;11.55;;
37885;SDS011;23726;52.520;13.434;2022-11-18T06:22:10;12.27;;;11.00;;
37885;SDS011;23726;52.520;13.434;2022-11-18T06:24:36;12.05;;;10.75;;
37885;SDS011;23726;52.520;13.434;2022-11-18T06:27:02;11.88;;;10.60;;
37885;SDS011;23726;52.520;13.434;2022-11-18T06:29:28;12.98;;;11.30;;
37885;SDS011;23726;52.520;13.434;2022-11-18T06:31:55;12.40;;;11.10;;
37885;SDS011;23726;52.520;13.434;2022-11-18T06:34:21;12.10;;;10.75;;
37885;SDS011;23726;52.520;13.434;2022-11-18T06:36:47;12.70;;;10.93;;
37885;SDS011;23726;52.520;13.434;2022-11-18T06:39:12;11.57;;;10.45;;
37885;SDS011;23726;52.520;13.434;2022-11-18T06:41:38;11.75;;;10.55;;
37885;SDS011;23726;52.520;13.434;2022-11-18T06:44:03;12.05;;;10.85;;
37885;SDS011;23726;52.520;13.434;2022-11-18T06:46:29;12.70;;;11.02;;
37885;SDS011;23726;52.520;13.434;2022-11-18T06:49:13;11.75;;;10.50;;
37885;SDS011;23726;52.520;13.434;2022-11-18T06:51:39;12.55;;;11.25;;
37885;SDS011;23726;52.520;13.434;2022-11-18T06:54:04;12.07;;;10.70;;
37885;SDS011;23726;52.520;13.434;2022-11-18T06:56:30;12.07;;;10.88;;
37885;SDS011;23726;52.520;13.434;2022-11-18T06:58:56;13.25;;;11.50;;
37885;SDS011;23726;52.520;13.434;2022-11-18T07:01:28;10.88;;;9.77;;
37885;SDS011;23726;52.520;13.434;2022-11-18T07:03:56;11.57;;;10.38;;
37885;SDS011;23726;52.520;13.434;2022-11-18T07:06:24;12.02;;;10.80;;
37885;SDS011;23726;52.520;13.434;2022-11-18T07:08:51;12.40;;;10.68;;
37885;SDS011;23726;52.520;13.434;2022-11-18T07:11:18;11.73;;;10.52;;
37885;SDS011;23726;52.520;13.434;2022-11-18T07:13:46;11.32;;;10.23;;
37885;SDS011;23726;52.520;13.434;2022-11-18T07:16:17;12.15;;;10.88;;
37885;SDS011;23726;52.520;13.434;2022-11-18T07:18:45;12.07;;;10.85;;
37885;SDS011;23726;52.520;13.434;2022-11-18T07:21:16;11.93;;;10.70;;
37885;SDS011;23726;52.520;13.434;2022-11-18T07:23:46;12.20;;;10.90;;
37885;SDS011;23726;52.520;13.434;2022-11-18T07:26:12;12.20;;;11.00;;
37885;SDS011;23726;52.520;13.434;2022-11-18T07:28:38;11.63;;;10.43;;
37885;SDS011;23726;52.520;13.434;2022-11-18T07:31:05;11.93;;;10.55;;
37885;SDS011;23726;52.520;13.434;2022-11-18T07:33:32;12.52;;;10.82;;
37885;SDS011;23726;52.520;13.434;2022-11-18T07:36:02;11.43;;;10.20;;
37885;SDS011;23726;52.520;13.434;2022-11-18T07:38:39;12.25;;;10.25;;
37885;SDS011;23726;52.520;13.434;2022-11-18T07:41:06;11.82;;;10.25;;
37885;SDS011;23726;52.520;13.434;2022-11-18T07:43:34;11.15;;;10.05;;
37885;SDS011;23726;52.520;13.434;2022-11-18T07:46:08;11.10;;;10.00;;
37885;SDS011;23726;52.520;13.434;2022-11-18T07:48:43;11.60;;;10.40;;
37885;SDS011;23726;52.520;13.434;2022-11-18T07:51:09;11.23;;;10.02;;
37885;SDS011;23726;52.520;13.434;2022-11-18T07:53:36;11.32;;;10.18;;
37885;SDS011;23726;52.520;13.434;2022-11-18T07:56:02;11.43;;;10.18;;
37885;SDS011;23726;52.520;13.434;2022-11-18T07:58:28;12.18;;;10.75;;
37885;SDS011;23726;52.520;13.434;2022-11-18T08:00:54;11.82;;;10.38;;
37885;SDS011;23726;52.520;13.434;2022-11-18T08:03:23;11.30;;;10.10;;
37885;SDS011;23726;52.520;13.434;2022-11-18T08:08:15;12.13;;;10.20;;
37885;SDS011;23726;52.520;13.434;2022-11-18T08:10:41;10.57;;;9.48;;
37885;SDS011;23726;52.520;13.434;2022-11-18T08:13:06;11.75;;;9.80;;
37885;SDS011;23726;52.520;13.434;2022-11-18T08:15:32;10.88;;;9.77;;
37885;SDS011;23726;52.520;13.434;2022-11-18T08:17:58;11.55;;;9.85;;
37885;SDS011;23726;52.520;13.434;2022-11-18T08:20:23;11.20;;;10.00;;
37885;SDS011;23726;52.520;13.434;2022-11-18T08:22:51;10.68;;;9.57;;
37885;SDS011;23726;52.520;13.434;2022-11-18T08:25:16;11.65;;;10.30;;
37885;SDS011;23726;52.520;13.434;2022-11-18T08:27:42;11.20;;;10.00;;
37885;SDS011;23726;52.520;13.434;2022-11-18T08:30:08;11.52;;;10.23;;
37885;SDS011;23726;52.520;13.434;2022-11-18T08:32:34;11.05;;;9.48;;
37885;SDS011;23726;52.520;13.434;2022-11-18T08:35:00;11.52;;;9.52;;
37885;SDS011;23726;52.520;13.434;2022-11-18T08:37:26;11.35;;;10.23;;
37885;SDS011;23726;52.520;13.434;2022-11-18T08:39:52;11.18;;;9.73;;
37885;SDS011;23726;52.520;13.434;2022-11-18T08:42:18;10.90;;;9.80;;
37885;SDS011;23726;52.520;13.434;2022-11-18T08:44:46;11.23;;;9.30;;
37885;SDS011;23726;52.520;13.434;2022-11-18T08:47:12;10.48;;;9.38;;
37885;SDS011;23726;52.520;13.434;2022-11-18T08:49:38;10.05;;;9.00;;
37885;SDS011;23726;52.520;13.434;2022-11-18T08:52:04;10.27;;;9.20;;
37885;SDS011;23726;52.520;13.434;2022-11-18T08:54:29;10.95;;;9.68;;
37885;SDS011;23726;52.520;13.434;2022-11-18T08:56:56;10.95;;;9.85;;
37885;SDS011;23726;52.520;13.434;2022-11-18T08:59:22;10.95;;;9.38;;
37885;SDS011;23726;52.520;13.434;2022-11-18T09:01:48;10.18;;;9.02;;
37885;SDS011;23726;52.520;13.434;2022-11-18T09:04:13;13.10;;;9.90;;
37885;SDS011;23726;52.520;13.434;2022-11-18T09:06:40;10.10;;;9.07;;
37885;SDS011;23726;52.520;13.434;2022-11-18T09:09:06;10.90;;;9.15;;
37885;SDS011;23726;52.520;13.434;2022-11-18T09:11:32;10.82;;;9.55;;
37885;SDS011;23726;52.520;13.434;2022-11-18T09:13:59;10.40;;;9.25;;
37885;SDS011;23726;52.520;13.434;2022-11-18T09:16:25;11.27;;;9.75;;
37885;SDS011;23726;52.520;13.434;2022-11-18T09:18:53;9.85;;;8.75;;
37885;SDS011;23726;52.520;13.434;2022-11-18T09:21:20;9.90;;;8.90;;
37885;SDS011;23726;52.520;13.434;2022-11-18T09:23:46;11.50;;;9.27;;
37885;SDS011;23726;52.520;13.434;2022-11-18T09:26:12;10.50;;;9.40;;
37885;SDS011;23726;52.520;13.434;2022-11-18T09:28:40;12.48;;;8.85;;
37885;SDS011;23726;52.520;13.434;2022-11-18T09:31:07;10.95;;;9.07;;
37885;SDS011;23726;52.520;13.434;2022-11-18T09:33:35;11.40;;;9.32;;
37885;SDS011;23726;52.520;13.434;2022-11-18T09:36:01;13.38;;;9.35;;
37885;SDS011;23726;52.520;13.434;2022-11-18T09:38:29;11.05;;;9.85;;
37885;SDS011;23726;52.520;13.434;2022-11-18T09:49:36;9.25;;;8.32;;
37885;SDS011;23726;52.520;13.434;2022-11-18T09:54:50;10.90;;;8.90;;
37885;SDS011;23726;52.520;13.434;2022-11-18T09:57:18;9.63;;;8.63;;
37885;SDS011;23726;52.520;13.434;2022-11-18T09:59:47;9.07;;;8.15;;
37885;SDS011;23726;52.520;13.434;2022-11-18T10:10:26;9.52;;;8.38;;
37885;SDS011;23726;52.520;13.434;2022-11-18T10:13:21;9.25;;;8.20;;
37885;SDS011;23726;52.520;13.434;2022-11-18T10:18:32;9.55;;;8.13;;
37885;SDS011;23726;52.520;13.434;2022-11-18T10:26:43;8.50;;;7.60;;
37885;SDS011;23726;52.520;13.434;2022-11-18T10:29:09;8.77;;;7.63;;
37885;SDS011;23726;52.520;13.434;2022-11-18T10:31:38;7.80;;;7.00;;
37885;SDS011;23726;52.520;13.434;2022-11-18T10:34:17;8.20;;;7.40;;
37885;SDS011;23726;52.520;13.434;2022-11-18T10:36:43;8.18;;;7.05;;
37885;SDS011;23726;52.520;13.434;2022-11-18T10:39:21;8.77;;;7.28;;
37885;SDS011;23726;52.520;13.434;2022-11-18T10:41:50;7.97;;;7.18;;
37885;SDS011;23726;52.520;13.434;2022-11-18T10:47:18;8.43;;;7.35;;
37885;SDS011;23726;52.520;13.434;2022-11-18T10:49:48;8.38;;;6.93;;
37885;SDS011;23726;52.520;13.434;2022-11-18T10:52:15;7.35;;;6.55;;
37885;SDS011;23726;52.520;13.434;2022-11-18T10:54:41;8.10;;;6.75;;
37885;SDS011;23726;52.520;13.434;2022-11-18T10:57:14;7.22;;;6.35;;
37885;SDS011;23726;52.520;13.434;2022-11-18T10:59:55;7.13;;;6.40;;
37885;SDS011;23726;52.520;13.434;2022-11-18T11:02:30;7.63;;;6.82;;
37885;SDS011;23726;52.520;13.434;2022-11-18T11:04:58;7.30;;;6.47;;
37885;SDS011;23726;52.520;13.434;2022-11-18T11:12:31;7.10;;;6.07;;
37885;SDS011;23726;52.520;13.434;2022-11-18T11:15:10;8.02;;;6.78;;
37885;SDS011;23726;52.520;13.434;2022-11-18T11:17:50;7.80;;;6.47;;
37885;SDS011;23726;52.520;13.434;2022-11-18T11:20:41;6.50;;;5.80;;
37885;SDS011;23726;52.520;13.434;2022-11-18T11:23:10;6.93;;;5.90;;
37885;SDS011;23726;52.520;13.434;2022-11-18T11:25:42;7.15;;;5.63;;
37885;SDS011;23726;52.520;13.434;2022-11-18T11:55:43;6.55;;;5.95;;
37885;SDS011;23726;52.520;13.434;2022-11-18T12:00:44;7.05;;;5.95;;
37885;SDS011;23726;52.520;13.434;2022-11-18T12:06:09;5.93;;;5.32;;
37885;SDS011;23726;52.520;13.434;2022-11-18T12:08:35;6.60;;;5.72;;
37885;SDS011;23726;52.520;13.434;2022-11-18T12:16:37;9.35;;;5.60;;
37885;SDS011;23726;52.520;13.434;2022-11-18T12:19:20;10.50;;;5.68;;
37885;SDS011;23726;52.520;13.434;2022-11-18T12:21:50;8.32;;;5.72;;
37885;SDS011;23726;52.520;13.434;2022-11-18T12:29:55;10.57;;;6.28;;
37885;SDS011;23726;52.520;13.434;2022-11-18T12:32:41;8.93;;;6.22;;
37885;SDS011;23726;52.520;13.434;2022-11-18T12:40:03;8.95;;;7.18;;
37885;SDS011;23726;52.520;13.434;2022-11-18T12:42:47;11.48;;;7.05;;
37885;SDS011;23726;52.520;13.434;2022-11-18T12:50:53;7.60;;;6.32;;
37885;SDS011;23726;52.520;13.434;2022-11-18T12:56:31;13.27;;;6.57;;
37885;SDS011;23726;52.520;13.434;2022-11-18T12:58:59;8.38;;;6.90;;
37885;SDS011;23726;52.520;13.434;2022-11-18T13:01:26;7.22;;;6.10;;
37885;SDS011;23726;52.520;13.434;2022-11-18T13:06:40;9.93;;;6.60;;
37885;SDS011;23726;52.520;13.434;2022-11-18T13:09:25;6.25;;;5.65;;
37885;SDS011;23726;52.520;13.434;2022-11-18T13:12:15;6.97;;;6.28;;
37885;SDS011;23726;52.520;13.434;2022-11-18T13:14:42;8.82;;;6.43;;
37885;SDS011;23726;52.520;13.434;2022-11-18T13:17:35;8.43;;;6.72;;
37885;SDS011;23726;52.520;13.434;2022-11-18T13:20:32;7.00;;;6.30;;
37885;SDS011;23726;52.520;13.434;2022-11-18T13:25:53;9.68;;;6.90;;
37885;SDS011;23726;52.520;13.434;2022-11-18T13:33:27;10.32;;;6.00;;
37885;SDS011;23726;52.520;13.434;2022-11-18T13:35:57;10.00;;;6.90;;
37885;SDS011;23726;52.520;13.434;2022-11-18T13:38:23;6.93;;;6.13;;
37885;SDS011;23726;52.520;13.434;2022-11-18T13:40:50;8.10;;;6.18;;
37885;SDS011;23726;52.520;13.434;2022-11-18T13:43:38;7.00;;;6.15;;
37885;SDS011;23726;52.520;13.434;2022-11-18T13:46:12;6.60;;;5.63;;
37885;SDS011;23726;52.520;13.434;2022-11-18T13:48:46;7.47;;;5.97;;
37885;SDS011;23726;52.520;13.434;2022-11-18T13:51:18;6.97;;;6.03;;
37885;SDS011;23726;52.520;13.434;2022-11-18T13:53:46;7.32;;;5.60;;
37885;SDS011;23726;52.520;13.434;2022-11-18T13:56:18;6.38;;;5.70;;
37885;SDS011;23726;52.520;13.434;2022-11-18T14:01:16;7.32;;;5.80;;
37885;SDS011;23726;52.520;13.434;2022-11-18T14:03:56;6.15;;;5.50;;
37885;SDS011;23726;52.520;13.434;2022-11-18T14:09:14;6.30;;;5.70;;
37885;SDS011;23726;52.520;13.434;2022-11-18T14:12:05;6.20;;;5.38;;
37885;SDS011;23726;52.520;13.434;2022-11-18T14:17:02;7.60;;;5.57;;
37885;SDS011;23726;52.520;13.434;2022-11-18T14:19:49;7.88;;;5.40;;
37885;SDS011;23726;52.520;13.434;2022-11-18T14:22:18;6.65;;;5.38;;
37885;SDS011;23726;52.520;13.434;2022-11-18T14:25:02;5.72;;;4.90;;
37885;SDS011;23726;52.520;13.434;2022-11-18T14:27:40;6.35;;;5.25;;
37885;SDS011;23726;52.520;13.434;2022-11-18T14:30:29;6.13;;;5.03;;
37885;SDS011;23726;52.520;13.434;2022-11-18T14:33:08;8.40;;;5.53;;
37885;SDS011;23726;52.520;13.434;2022-11-18T14:35:41;7.20;;;5.32;;
37885;SDS011;23726;52.520;13.434;2022-11-18T14:38:15;5.50;;;4.88;;
37885;SDS011;23726;52.520;13.434;2022-11-18T14:40:46;6.03;;;5.38;;
37885;SDS011;23726;52.520;13.434;2022-11-18T14:43:21;5.70;;;5.18;;
37885;SDS011;23726;52.520;13.434;2022-11-18T14:45:47;5.97;;;5.30;;
37885;SDS011;23726;52.520;13.434;2022-11-18T14:48:14;6.65;;;5.75;;
37885;SDS011;23726;52.520;13.434;2022-11-18T14:50:41;5.80;;;5.22;;
37885;SDS011;23726;52.520;13.434;2022-11-18T14:53:08;6.78;;;5.65;;
37885;SDS011;23726;52.520;13.434;2022-11-18T14:55:36;6.18;;;5.20;;
37885;SDS011;23726;52.520;13.434;2022-11-18T14:58:01;7.22;;;5.70;;
37885;SDS011;23726;52.520;13.434;2022-11-18T15:00:27;6.10;;;5.28;;
37885;SDS011;23726;52.520;13.434;2022-11-18T15:02:53;6.55;;;5.70;;
37885;SDS011;23726;52.520;13.434;2022-11-18T15:05:18;5.38;;;4.88;;
37885;SDS011;23726;52.520;13.434;2022-11-18T15:07:44;5.70;;;4.93;;
37885;SDS011;23726;52.520;13.434;2022-11-18T15:10:14;6.07;;;5.40;;
37885;SDS011;23726;52.520;13.434;2022-11-18T15:12:40;6.28;;;5.20;;
37885;SDS011;23726;52.520;13.434;2022-11-18T15:15:06;5.72;;;5.13;;
37885;SDS011;23726;52.520;13.434;2022-11-18T15:17:32;7.00;;;5.13;;
37885;SDS011;23726;52.520;13.434;2022-11-18T15:19:57;8.18;;;4.85;;
37885;SDS011;23726;52.520;13.434;2022-11-18T15:22:23;5.13;;;4.63;;
37885;SDS011;23726;52.520;13.434;2022-11-18T15:24:49;5.50;;;4.75;;
37885;SDS011;23726;52.520;13.434;2022-11-18T15:27:14;6.20;;;4.78;;
37885;SDS011;23726;52.520;13.434;2022-11-18T15:29:40;5.07;;;4.30;;
37885;SDS011;23726;52.520;13.434;2022-11-18T15:32:06;5.60;;;4.22;;
37885;SDS011;23726;52.520;13.434;2022-11-18T15:34:31;5.35;;;4.20;;
37885;SDS011;23726;52.520;13.434;2022-11-18T15:36:57;5.55;;;4.88;;
37885;SDS011;23726;52.520;13.434;2022-11-18T15:39:23;6.43;;;4.57;;
37885;SDS011;23726;52.520;13.434;2022-11-18T15:41:48;5.25;;;4.40;;
37885;SDS011;23726;52.520;13.434;2022-11-18T15:44:14;5.18;;;4.68;;
37885;SDS011;23726;52.520;13.434;2022-11-18T15:46:39;4.82;;;4.32;;
37885;SDS011;23726;52.520;13.434;2022-11-18T15:49:05;6.35;;;4.68;;
37885;SDS011;23726;52.520;13.434;2022-11-18T15:51:31;4.65;;;4.22;;
37885;SDS011;23726;52.520;13.434;2022-11-18T15:53:57;4.88;;;4.40;;
37885;SDS011;23726;52.520;13.434;2022-11-18T15:56:27;7.03;;;4.28;;
37885;SDS011;23726;52.520;13.434;2022-11-18T15:58:55;4.70;;;4.03;;
37885;SDS011;23726;52.520;13.434;2022-11-18T16:01:28;4.38;;;3.97;;
37885;SDS011;23726;52.520;13.434;2022-11-18T16:04:03;5.32;;;4.25;;
37885;SDS011;23726;52.520;13.434;2022-11-18T16:06:30;5.50;;;4.05;;
37885;SDS011;23726;52.520;13.434;2022-11-18T16:08:55;4.32;;;3.88;;
37885;SDS011;23726;52.520;13.434;2022-11-18T16:11:21;4.80;;;4.05;;
37885;SDS011;23726;52.520;13.434;2022-11-18T16:14:07;5.70;;;4.43;;
37885;SDS011;23726;52.520;13.434;2022-11-18T16:16:35;5.68;;;4.10;;
37885;SDS011;23726;52.520;13.434;2022-11-18T16:19:03;5.53;;;4.22;;
37885;SDS011;23726;52.520;13.434;2022-11-18T16:21:34;4.25;;;3.83;;
37885;SDS011;23726;52.520;13.434;2022-11-18T16:24:02;4.60;;;4.20;;
37885;SDS011;23726;52.520;13.434;2022-11-18T16:26:29;6.32;;;4.28;;
37885;SDS011;23726;52.520;13.434;2022-11-18T16:28:55;6.43;;;4.22;;
37885;SDS011;23726;52.520;13.434;2022-11-18T16:31:21;4.82;;;4.32;;
37885;SDS011;23726;52.520;13.434;2022-11-18T16:36:30;4.80;;;4.30;;
37885;SDS011;23726;52.520;13.434;2022-11-18T16:38:56;5.05;;;4.25;;
37885;SDS011;23726;52.520;13.434;2022-11-18T16:41:22;4.60;;;4.20;;
37885;SDS011;23726;52.520;13.434;2022-11-18T16:44:00;4.43;;;4.00;;
37885;SDS011;23726;52.520;13.434;2022-11-18T16:46:28;4.53;;;4.13;;
37885;SDS011;23726;52.520;13.434;2022-11-18T16:48:55;4.43;;;4.03;;
37885;SDS011;23726;52.520;13.434;2022-11-18T16:51:22;4.63;;;4.22;;
37885;SDS011;23726;52.520;13.434;2022-11-18T16:53:52;4.45;;;3.95;;
37885;SDS011;23726;52.520;13.434;2022-11-18T16:56:19;4.55;;;4.15;;
37885;SDS011;23726;52.520;13.434;2022-11-18T16:58:46;4.82;;;4.28;;
37885;SDS011;23726;52.520;13.434;2022-11-18T17:01:12;5.15;;;4.03;;
37885;SDS011;23726;52.520;13.434;2022-11-18T17:03:38;4.43;;;4.03;;